Rancho Viejo, Texas
Current Conditions -  °F | °C
As of 6:53 PM on Tuesday 25 Nov 2014 (Local Time) from KBRO Reporting Station
Clear Clear  
Wind Chill: 54°   Ceiling: Unl
Heat Index: 54°   Visibility: 10mi
Dew Point: 44°   Wind: 5mph
Humidity: 69%   Direction: 50°NE
Pressure: 30.29"   Gusts: NA
Location:  26.0347°N, 97.5478°W
Report Text: KBRO 260053Z 05004KT 10SM CLR 12/07 A3029 RMK AO2 SLP254 T01220067
Loading
Personal Weather Stations






























Interactive Weather Map New forecast layout! Learn more

10-Day Weather Forecast

Advertisements
Track Severe Weather on mobile